Terminal Aerodrome Forecast
Issued by NWS

Home | Current Version | Previous Version | Text Only | Print | Product List | Glossary On
Versions: 1 2 3 4 5 6 7 8 9 10 11 12 13 14 15 16 17 18 19 20 21 22 23 24 25 26 27 28 29 30 31 32
000
FTUS43 KPAH 010540
TAFOWB
TAF
KOWB 010540Z 0106/0206 09002KT P6SM OVC070
     FM011000 00000KT 4SM -FZRASN BR FEW010 OVC035
     FM011400 27004KT 2SM -DZ BR OVC005
     FM012100 31005KT 5SM -DZ BR OVC005
     FM020000 33005KT P6SM OVC020=

USA.gov is the U.S. government's official web portal to all federal, state and local government web resources and services.